Time;durP1;ratioP1;P1;durP2;ratioP2;P2;SDS_P1;SDS_P2;PMS_P1;PMS_P2;Temp;Humidity;BMP_temperature;BMP_pressure;BME280_temperature;BME280_humidity;BME280_pressure;Samples;Min_cycle;Max_cycle;Signal;HPM_P1;HPM_P2
2023/06/08 00:01:45;;;;;;;9.02;8.07;;;14.80;99.90;;;;;;5137850;27;20442;-72
2023/06/08 00:04:12;;;;;;;9.57;7.10;;;14.80;99.90;;;;;;5137876;27;20456;-73
2023/06/08 00:06:40;;;;;;;12.65;7.25;;;14.70;99.90;;;;;;5137784;27;20063;-73
2023/06/08 00:09:06;;;;;;;13.73;7.82;;;14.70;99.90;;;;;;5137750;27;20180;-72
2023/06/08 00:11:32;;;;;;;10.05;7.75;;;14.70;99.90;;;;;;5137671;27;20114;-72
2023/06/08 00:13:59;;;;;;;8.20;7.43;;;14.60;99.90;;;;;;5137894;27;20035;-72
2023/06/08 00:16:25;;;;;;;10.38;7.97;;;14.60;99.90;;;;;;5137602;27;20031;-73
2023/06/08 00:18:56;;;;;;;8.38;7.47;;;14.60;99.90;;;;;;5137396;27;20043;-73
2023/06/08 00:21:29;;;;;;;10.75;7.47;;;14.60;99.90;;;;;;5119343;27;20038;-72
2023/06/08 00:23:55;;;;;;;8.00;7.20;;;14.60;99.90;;;;;;5137408;27;20034;-72
2023/06/08 00:26:21;;;;;;;12.13;7.63;;;14.50;99.90;;;;;;5137354;27;20019;-73
2023/06/08 00:28:48;;;;;;;9.30;7.55;;;14.50;99.90;;;;;;5119189;27;20058;-73
2023/06/08 00:31:17;;;;;;;14.25;7.82;;;14.40;99.90;;;;;;5137504;27;20031;-73
2023/06/08 00:33:43;;;;;;;16.35;7.47;;;14.40;99.90;;;;;;5137132;27;20035;-73
2023/06/08 00:36:09;;;;;;;8.18;7.38;;;14.40;99.90;;;;;;5136858;27;20039;-73
2023/06/08 00:38:34;;;;;;;11.70;7.40;;;14.40;99.90;;;;;;5136834;27;20034;-73
2023/06/08 00:41:00;;;;;;;10.13;8.32;;;14.40;99.90;;;;;;5118683;27;20485;-73
2023/06/08 00:43:26;;;;;;;8.90;7.95;;;14.40;99.90;;;;;;5137070;27;20035;-73
2023/06/08 00:45:52;;;;;;;9.10;7.97;;;14.40;99.90;;;;;;5137015;27;20031;-72
2023/06/08 00:48:18;;;;;;;12.40;8.32;;;14.40;99.90;;;;;;5136730;27;20035;-73
2023/06/08 00:50:46;;;;;;;11.25;8.18;;;14.30;99.90;;;;;;5136941;27;20038;-73
2023/06/08 00:53:31;;;;;;;11.95;8.15;;;14.30;99.90;;;;;;5136863;27;20031;-73
2023/06/08 00:55:57;;;;;;;9.25;7.97;;;14.30;99.90;;;;;;5136984;27;20039;-73
2023/06/08 00:58:28;;;;;;;9.27;8.30;;;14.30;99.90;;;;;;5118602;27;20088;-73
2023/06/08 01:00:59;;;;;;;13.80;8.00;;;14.30;99.90;;;;;;5118503;27;20031;-73
2023/06/08 01:03:33;;;;;;;9.00;8.10;;;14.20;99.90;;;;;;5136472;27;20417;-73
2023/06/08 01:06:08;;;;;;;12.23;8.38;;;14.20;99.90;;;;;;5118575;27;20042;-73
2023/06/08 01:08:47;;;;;;;10.15;8.40;;;14.20;99.90;;;;;;5136775;27;20110;-73
2023/06/08 01:11:31;;;;;;;;;;;14.20;99.90;;;;;;5137179;27;20034;-73
2023/06/08 01:14:35;;;;;;;9.63;8.35;;;14.20;99.90;;;;;;5136514;27;19908;-73
2023/06/08 01:17:03;;;;;;;11.25;8.52;;;14.20;99.90;;;;;;5136413;27;20059;-73
2023/06/08 01:20:04;;;;;;;20.87;9.20;;;14.20;99.90;;;;;;5114291;28;20047;-73
2023/06/08 01:22:56;;;;;;;10.95;7.90;;;14.20;99.90;;;;;;5114843;28;20308;-73
2023/06/08 01:25:26;;;;;;;9.43;8.27;;;14.10;99.90;;;;;;5116120;28;20038;-73
2023/06/08 01:27:59;;;;;;;9.30;8.30;;;14.10;99.90;;;;;;5114413;28;20474;-73
2023/06/08 01:30:25;;;;;;;9.07;8.27;;;14.10;99.90;;;;;;5115245;28;20031;-73
2023/06/08 01:32:51;;;;;;;10.77;7.50;;;14.10;99.90;;;;;;5114230;28;20035;-73
2023/06/08 01:35:17;;;;;;;14.77;8.65;;;14.10;99.90;;;;;;5115633;28;20036;-73
2023/06/08 01:37:56;;;;;;;10.32;7.85;;;14.00;99.90;;;;;;5115454;28;20051;-73
2023/06/08 01:40:44;;;;;;;9.45;8.50;;;14.00;99.90;;;;;;5115431;28;20052;-73
2023/06/08 01:43:11;;;;;;;14.23;8.45;;;13.90;99.90;;;;;;5114054;28;20039;-73
2023/06/08 01:45:44;;;;;;;9.77;8.07;;;13.90;99.90;;;;;;5115297;28;20074;-73
2023/06/08 01:48:12;;;;;;;8.65;7.80;;;13.90;99.90;;;;;;5114335;28;20084;-73
2023/06/08 01:50:39;;;;;;;8.55;7.60;;;13.80;99.90;;;;;;5113931;28;20038;-73
2023/06/08 01:53:05;;;;;;;8.93;7.85;;;13.80;99.90;;;;;;5113884;28;20043;-73
2023/06/08 01:55:31;;;;;;;9.63;8.63;;;13.80;99.90;;;;;;5115029;28;20032;-73
2023/06/08 01:57:57;;;;;;;11.77;7.55;;;13.80;99.90;;;;;;5115080;28;20039;-73
2023/06/08 02:00:23;;;;;;;12.98;8.65;;;13.70;99.90;;;;;;5115267;28;20036;-72
2023/06/08 02:02:49;;;;;;;11.93;8.35;;;13.70;99.90;;;;;;5113672;28;20035;-73
2023/06/08 02:05:16;;;;;;;11.90;9.00;;;13.70;99.90;;;;;;5114792;28;20034;-73
2023/06/08 02:07:42;;;;;;;16.35;8.77;;;13.70;99.90;;;;;;5114932;28;20028;-73
2023/06/08 02:10:10;;;;;;;12.25;9.13;;;13.70;99.90;;;;;;5114854;28;20024;-73
2023/06/08 02:12:36;;;;;;;12.38;9.38;;;13.80;99.90;;;;;;5115060;28;20407;-73
2023/06/08 02:15:02;;;;;;;11.40;9.27;;;13.80;99.90;;;;;;5114696;28;20095;-73
2023/06/08 02:17:33;;;;;;;19.38;10.20;;;13.80;99.90;;;;;;5114689;28;20031;-73
2023/06/08 02:20:00;;;;;;;13.00;9.73;;;13.80;99.90;;;;;;5129362;27;20047;-73
2023/06/08 02:22:28;;;;;;;12.25;9.48;;;13.80;99.90;;;;;;5134832;27;20385;-73
2023/06/08 02:24:53;;;;;;;14.70;11.13;;;13.80;99.90;;;;;;5135122;27;20031;-73
2023/06/08 02:27:19;;;;;;;14.15;9.90;;;13.80;99.90;;;;;;5116907;27;20038;-73
2023/06/08 02:29:45;;;;;;;12.70;9.07;;;13.80;99.90;;;;;;5135369;27;20464;-73
2023/06/08 02:32:10;;;;;;;17.40;11.43;;;13.80;99.90;;;;;;5134723;27;20035;-73
2023/06/08 02:34:37;;;;;;;20.70;11.63;;;13.80;99.90;;;;;;5135181;27;20184;-73
2023/06/08 02:37:04;;;;;;;22.35;12.15;;;13.80;99.90;;;;;;5135012;27;20106;-73
2023/06/08 02:39:29;;;;;;;14.75;11.70;;;13.80;99.90;;;;;;5134941;27;20091;-73
2023/06/08 02:41:55;;;;;;;20.20;12.20;;;13.80;99.90;;;;;;5134629;27;20059;-73
2023/06/08 02:44:21;;;;;;;18.25;12.55;;;13.80;99.90;;;;;;5134854;27;20063;-73
2023/06/08 02:46:47;;;;;;;21.60;13.63;;;13.80;99.90;;;;;;5134825;27;20035;-73
2023/06/08 02:49:13;;;;;;;19.63;13.30;;;13.80;99.90;;;;;;5134867;27;20406;-73
2023/06/08 02:51:38;;;;;;;22.05;14.50;;;13.90;99.90;;;;;;5134775;27;20045;-73
2023/06/08 02:54:04;;;;;;;21.75;14.48;;;13.90;99.90;;;;;;5134635;27;20042;-73
2023/06/08 02:56:30;;;;;;;25.45;16.30;;;13.90;99.90;;;;;;5116300;28;20035;-73
2023/06/08 02:58:56;;;;;;;24.10;16.05;;;13.90;99.90;;;;;;5134718;27;20031;-73
2023/06/08 03:01:23;;;;;;;29.55;16.98;;;14.00;99.90;;;;;;5122666;27;20035;-73
2023/06/08 03:03:53;;;;;;;32.35;16.63;;;14.00;99.90;;;;;;5122992;27;20129;-73
2023/06/08 03:06:19;;;;;;;28.70;15.95;;;14.00;99.90;;;;;;5141950;27;20043;-73
2023/06/08 03:08:53;;;;;;;29.70;16.23;;;14.00;99.90;;;;;;5141237;27;20374;-73
2023/06/08 03:11:22;;;;;;;28.73;16.88;;;14.00;99.90;;;;;;5122791;27;20035;-73
2023/06/08 03:13:48;;;;;;;30.75;16.08;;;14.00;99.90;;;;;;5123184;27;20031;-73
2023/06/08 03:16:15;;;;;;;32.58;15.75;;;14.00;99.90;;;;;;5122934;27;20083;-73
2023/06/08 03:18:41;;;;;;;26.63;16.83;;;14.00;99.90;;;;;;5141254;27;20130;-73
2023/06/08 03:21:12;;;;;;;28.90;15.75;;;14.00;99.90;;;;;;5122919;27;20463;-73
2023/06/08 03:23:38;;;;;;;23.88;16.33;;;14.10;99.90;;;;;;5123578;27;20038;-73
2023/06/08 03:26:04;;;;;;;38.55;17.80;;;14.10;99.90;;;;;;5141339;27;20109;-73
2023/06/08 03:28:30;;;;;;;23.67;15.68;;;14.10;99.90;;;;;;5123043;27;20121;-73
2023/06/08 03:30:56;;;;;;;28.80;15.40;;;14.10;99.90;;;;;;5141250;27;20034;-73
2023/06/08 03:33:22;;;;;;;25.83;15.82;;;14.10;99.90;;;;;;5122754;27;20597;-73
2023/06/08 03:35:50;;;;;;;22.00;15.15;;;14.10;99.90;;;;;;5122754;27;20122;-73
2023/06/08 03:38:16;;;;;;;19.30;14.73;;;14.20;99.90;;;;;;5141272;27;20027;-74
2023/06/08 03:40:41;;;;;;;19.60;13.32;;;14.20;99.90;;;;;;5141457;27;20031;-73
2023/06/08 03:43:07;;;;;;;17.77;12.90;;;14.20;99.90;;;;;;5141163;27;20039;-73
2023/06/08 03:45:33;;;;;;;16.10;12.77;;;14.30;99.90;;;;;;5140850;27;20503;-73
2023/06/08 03:47:58;;;;;;;17.77;12.25;;;14.30;99.90;;;;;;5141142;27;20027;-73
2023/06/08 03:50:24;;;;;;;18.02;12.02;;;14.30;99.90;;;;;;5122783;27;20042;-73
2023/06/08 03:52:50;;;;;;;15.32;12.68;;;14.30;99.90;;;;;;5122770;27;20034;-73
2023/06/08 03:55:16;;;;;;;13.65;12.18;;;14.30;99.90;;;;;;5122442;27;20045;-73
2023/06/08 03:57:43;;;;;;;14.77;11.10;;;14.30;99.90;;;;;;5141017;27;20032;-73
2023/06/08 04:00:11;;;;;;;12.00;10.50;;;14.30;99.90;;;;;;5140695;27;20024;-73
2023/06/08 04:02:38;;;;;;;13.00;11.18;;;14.30;99.90;;;;;;5140737;27;20396;-73
2023/06/08 04:05:06;;;;;;;14.93;11.43;;;14.30;99.90;;;;;;5140925;27;20035;-73
2023/06/08 04:07:34;;;;;;;20.42;11.48;;;14.30;99.90;;;;;;5140963;27;20031;-72
2023/06/08 04:10:01;;;;;;;14.63;11.57;;;14.40;99.90;;;;;;5122967;27;20038;-73
2023/06/08 04:12:26;;;;;;;15.07;12.27;;;14.40;99.90;;;;;;5137011;27;20031;-73
2023/06/08 04:14:52;;;;;;;15.82;12.40;;;14.40;99.90;;;;;;5137538;27;20039;-73
2023/06/08 04:17:18;;;;;;;14.13;11.82;;;14.40;99.90;;;;;;5137608;27;20038;-73
2023/06/08 04:19:43;;;;;;;14.05;11.75;;;14.40;99.90;;;;;;5137465;27;20564;-73
2023/06/08 04:22:09;;;;;;;14.90;12.68;;;14.50;99.90;;;;;;5137210;27;20037;-73
2023/06/08 04:24:38;;;;;;;13.68;12.15;;;14.50;99.90;;;;;;5118987;27;20077;-73
2023/06/08 04:27:05;;;;;;;12.88;11.43;;;14.50;99.90;;;;;;5137433;27;20031;-73
2023/06/08 04:29:31;;;;;;;14.00;11.40;;;14.50;99.90;;;;;;5137470;27;20033;-73
2023/06/08 04:31:57;;;;;;;15.75;11.45;;;14.50;99.90;;;;;;5119074;27;20131;-73
2023/06/08 04:34:23;;;;;;;12.63;11.32;;;14.50;99.90;;;;;;5119167;27;20122;-72
2023/06/08 04:36:49;;;;;;;12.18;10.77;;;14.60;99.90;;;;;;5137227;27;20031;-72
2023/06/08 04:39:15;;;;;;;11.40;9.95;;;14.60;99.90;;;;;;5118745;27;20042;-73
2023/06/08 04:41:44;;;;;;;11.90;10.70;;;14.70;99.90;;;;;;5136795;27;20387;-74
2023/06/08 04:44:13;;;;;;;;;;;14.70;99.90;;;;;;5119013;27;20439;-73
2023/06/08 04:46:42;;;;;;;12.13;10.75;;;14.80;99.90;;;;;;5137138;27;19907;-73
2023/06/08 04:49:08;;;;;;;12.93;10.48;;;14.80;99.90;;;;;;5136896;27;20411;-73
2023/06/08 04:51:39;;;;;;;11.00;9.73;;;14.90;99.90;;;;;;5118704;27;20031;-73
2023/06/08 04:54:05;;;;;;;11.25;10.05;;;14.90;99.90;;;;;;5118386;27;20464;-73
2023/06/08 04:56:33;;;;;;;10.15;9.15;;;15.10;99.90;;;;;;5136521;27;20112;-73
2023/06/08 04:58:59;;;;;;;9.55;8.55;;;15.20;99.90;;;;;;5118270;27;20131;-72
2023/06/08 05:01:26;;;;;;;9.82;8.90;;;15.20;99.90;;;;;;5118385;27;20365;-74
2023/06/08 05:03:51;;;;;;;11.85;8.40;;;15.40;99.90;;;;;;5118330;27;20084;-75
2023/06/08 05:06:17;;;;;;;13.55;8.48;;;15.50;99.90;;;;;;5136618;27;20388;-75
2023/06/08 05:08:43;;;;;;;10.10;7.68;;;15.60;99.90;;;;;;5118194;27;20046;-75
2023/06/08 05:11:09;;;;;;;9.90;7.70;;;15.80;99.90;;;;;;5118214;27;20035;-75
2023/06/08 05:13:34;;;;;;;8.60;7.80;;;15.90;99.90;;;;;;5136629;27;20028;-74
2023/06/08 05:16:01;;;;;;;8.60;7.43;;;16.00;99.90;;;;;;5136120;27;20085;-75
2023/06/08 05:18:28;;;;;;;8.32;7.53;;;16.00;99.90;;;;;;5117682;27;20054;-74
2023/06/08 05:20:54;;;;;;;8.45;7.05;;;16.10;99.90;;;;;;5136370;27;20071;-73
2023/06/08 05:23:20;;;;;;;7.68;6.97;;;16.20;99.90;;;;;;5117600;27;20476;-73
2023/06/08 05:25:45;;;;;;;10.38;7.10;;;16.40;99.90;;;;;;5136278;27;20054;-74
2023/06/08 05:28:11;;;;;;;8.02;7.22;;;16.50;99.90;;;;;;5135946;27;20107;-74
2023/06/08 05:30:37;;;;;;;8.57;7.03;;;16.70;99.90;;;;;;5136483;27;20475;-74
2023/06/08 05:33:02;;;;;;;9.75;7.00;;;16.80;99.90;;;;;;5136150;27;20030;-74
2023/06/08 05:35:28;;;;;;;7.22;6.50;;;17.00;99.90;;;;;;5136033;27;20039;-73
2023/06/08 05:37:54;;;;;;;10.93;7.10;;;17.20;99.90;;;;;;5136036;27;20384;-74
2023/06/08 05:40:20;;;;;;;7.50;6.78;;;17.40;99.90;;;;;;5136046;27;20384;-74
2023/06/08 05:42:46;;;;;;;6.88;6.10;;;17.50;99.90;;;;;;5135945;27;20035;-74
2023/06/08 05:45:11;;;;;;;8.85;6.20;;;17.80;99.90;;;;;;5135859;27;20046;-74
2023/06/08 05:47:37;;;;;;;6.55;5.90;;;17.70;99.90;;;;;;5117807;27;20085;-74
2023/06/08 05:50:03;;;;;;;8.60;6.93;;;18.00;99.90;;;;;;5117439;27;20414;-74
2023/06/08 05:52:32;;;;;;;7.05;6.32;;;18.10;99.90;;;;;;5117281;27;20088;-75
2023/06/08 05:54:59;;;;;;;6.53;5.93;;;18.30;99.90;;;;;;5117288;27;20070;-74
2023/06/08 05:57:24;;;;;;;8.07;5.88;;;18.50;99.90;;;;;;5135635;27;20035;-73
2023/06/08 05:59:50;;;;;;;8.05;5.72;;;18.70;99.90;;;;;;5135661;27;20111;-72
2023/06/08 06:02:16;;;;;;;7.05;6.00;;;18.80;99.90;;;;;;5135336;27;20357;-72
2023/06/08 06:04:42;;;;;;;6.57;5.55;;;18.80;99.90;;;;;;5117225;27;20062;-63
2023/06/08 06:07:08;;;;;;;6.32;5.53;;;19.20;99.90;;;;;;5135448;27;20058;-64
2023/06/08 06:09:34;;;;;;;6.15;5.50;;;18.80;99.90;;;;;;5135563;27;20487;-63
2023/06/08 06:11:59;;;;;;;7.47;5.78;;;18.70;99.90;;;;;;5135403;27;20027;-64
2023/06/08 06:14:27;;;;;;;6.97;5.80;;;18.60;99.90;;;;;;5134956;27;20431;-72
2023/06/08 06:16:53;;;;;;;6.75;6.07;;;18.50;99.90;;;;;;5135329;27;20376;-70
2023/06/08 06:19:19;;;;;;;6.43;5.82;;;18.50;99.90;;;;;;5116570;27;20494;-71
2023/06/08 06:21:45;;;;;;;6.82;6.22;;;18.40;99.90;;;;;;5135136;27;20038;-70
2023/06/08 06:24:10;;;;;;;6.78;6.18;;;18.30;99.90;;;;;;5134872;27;20528;-70
2023/06/08 06:26:36;;;;;;;8.13;7.10;;;18.30;99.90;;;;;;5134974;27;20128;-73
2023/06/08 06:29:02;;;;;;;8.93;6.30;;;18.30;99.90;;;;;;5135046;27;20038;-73
2023/06/08 06:31:28;;;;;;;6.70;6.03;;;18.40;99.90;;;;;;5135623;27;20031;-73
2023/06/08 06:33:54;;;;;;;8.13;6.20;;;18.60;99.90;;;;;;5134697;27;20046;-71
2023/06/08 06:36:19;;;;;;;9.02;5.82;;;18.70;99.90;;;;;;5134082;27;20038;-71
2023/06/08 06:38:45;;;;;;;6.40;5.80;;;19.00;99.90;;;;;;5116557;27;20063;-74
2023/06/08 06:41:11;;;;;;;6.03;5.53;;;19.30;99.90;;;;;;5116443;27;20031;-74
2023/06/08 06:43:37;;;;;;;6.43;5.90;;;19.50;99.90;;;;;;5135091;27;20473;-74
2023/06/08 06:46:02;;;;;;;10.10;5.63;;;19.50;99.90;;;;;;5134782;27;20031;-72
2023/06/08 06:48:28;;;;;;;6.63;5.22;;;19.50;99.90;;;;;;5116435;28;20100;-74
2023/06/08 06:50:54;;;;;;;7.07;6.00;;;19.50;99.90;;;;;;5134763;27;20360;-74
2023/06/08 06:53:19;;;;;;;6.55;5.60;;;19.60;99.90;;;;;;5115997;28;20058;-75
2023/06/08 06:55:45;;;;;;;5.65;5.22;;;19.80;99.90;;;;;;5134689;27;20042;-74
2023/06/08 06:58:11;;;;;;;5.72;5.18;;;19.90;99.90;;;;;;5134590;28;20446;-71
2023/06/08 07:00:39;;;;;;;5.53;5.13;;;20.10;99.90;;;;;;5134658;28;20453;-70
2023/06/08 07:03:06;;;;;;;7.07;6.30;;;20.30;99.90;;;;;;5134720;28;20031;-74
2023/06/08 07:05:35;;;;;;;6.22;5.55;;;20.40;99.90;;;;;;5134597;28;20027;-71
2023/06/08 07:08:01;;;;;;;6.68;6.05;;;20.50;99.90;;;;;;5134364;28;20447;-72
2023/06/08 07:10:27;;;;;;;7.43;5.95;;;20.70;99.90;;;;;;5134597;28;20027;-72
2023/06/08 07:12:52;;;;;;;7.30;6.13;;;21.00;99.90;;;;;;5116222;28;20035;-71
2023/06/08 07:15:18;;;;;;;7.93;6.47;;;21.20;99.90;;;;;;5134543;28;20033;-72
2023/06/08 07:17:45;;;;;;;8.57;6.57;;;21.10;99.90;;;;;;5134262;28;20035;-72
2023/06/08 07:20:12;;;;;;;6.72;6.05;;;21.20;99.90;;;;;;5134762;28;20043;-72
2023/06/08 07:22:38;;;;;;;9.63;7.03;;;21.10;99.90;;;;;;5134426;28;20038;-72
2023/06/08 07:25:04;;;;;;;7.57;6.88;;;21.10;99.90;;;;;;5134769;28;20469;-74
2023/06/08 07:27:30;;;;;;;6.85;6.15;;;21.20;99.90;;;;;;5116208;28;20062;-73
2023/06/08 07:29:56;;;;;;;12.25;6.82;;;21.20;99.90;;;;;;5134402;28;20475;-75
2023/06/08 07:32:21;;;;;;;7.00;6.30;;;21.20;99.90;;;;;;5134636;28;20035;-64
2023/06/08 07:34:50;;;;;;;6.35;5.70;;;21.50;99.90;;;;;;5134013;28;20118;-64
2023/06/08 07:37:15;;;;;;;7.93;6.65;;;21.60;99.90;;;;;;5134358;28;20384;-64
2023/06/08 07:39:41;;;;;;;7.20;6.47;;;21.90;99.90;;;;;;5134299;28;20064;-62
2023/06/08 07:42:07;;;;;;;6.10;5.50;;;22.10;99.90;;;;;;5134323;28;20019;-62
2023/06/08 07:44:32;;;;;;;6.07;5.55;;;22.40;99.90;;;;;;5133942;28;20031;-62
2023/06/08 07:47:00;;;;;;;10.25;7.72;;;22.60;99.90;;;;;;5136795;27;20031;-63
2023/06/08 07:49:29;;;;;;;7.65;6.97;;;22.60;99.90;;;;;;5138011;27;20045;-63
2023/06/08 07:51:55;;;;;;;9.75;6.68;;;22.60;99.90;;;;;;5137915;27;20027;-64
2023/06/08 07:54:22;;;;;;;8.73;7.07;;;22.50;99.90;;;;;;5137862;27;20039;-62
2023/06/08 07:56:48;;;;;;;7.47;6.78;;;22.40;99.90;;;;;;5119582;27;20127;-62
2023/06/08 07:59:14;;;;;;;8.52;7.55;;;22.30;99.90;;;;;;5137936;27;20051;-62
2023/06/08 08:01:42;;;;;;;9.25;8.05;;;22.30;99.90;;;;;;5137855;27;20031;-62
2023/06/08 08:04:08;;;;;;;11.68;10.05;;;22.30;99.90;;;;;;5138060;27;20401;-64
2023/06/08 08:06:33;;;;;;;10.57;9.48;;;22.40;99.90;;;;;;5137628;27;20063;-64
2023/06/08 08:08:59;;;;;;;12.43;10.77;;;22.30;99.90;;;;;;5118924;27;20043;-63
2023/06/08 08:11:26;;;;;;;13.48;10.50;;;22.60;99.90;;;;;;5137586;27;20062;-63
2023/06/08 08:13:52;;;;;;;13.60;10.07;;;23.10;99.90;;;;;;5137497;27;20047;-62
2023/06/08 08:16:18;;;;;;;12.57;9.27;;;23.70;99.90;;;;;;5137260;27;20034;-68
2023/06/08 08:18:44;;;;;;;9.80;8.85;;;24.40;99.90;;;;;;5137412;27;20043;-65
2023/06/08 08:21:10;;;;;;;9.57;8.63;;;24.80;99.90;;;;;;5133161;27;20042;-64
2023/06/08 08:23:36;;;;;;;9.63;8.73;;;24.70;99.90;;;;;;5137505;27;20031;-64
2023/06/08 08:26:02;;;;;;;9.23;8.30;;;24.60;99.90;;;;;;5137088;27;20487;-63
2023/06/08 08:28:28;;;;;;;12.48;8.73;;;24.40;99.90;;;;;;5137156;27;20027;-65
2023/06/08 08:30:54;;;;;;;9.27;8.38;;;24.20;99.90;;;;;;5137236;27;20035;-63
2023/06/08 08:33:20;;;;;;;11.00;8.15;;;24.00;99.90;;;;;;5137173;27;20026;-64
2023/06/08 08:35:45;;;;;;;10.30;8.35;;;23.90;99.90;;;;;;5137168;27;20118;-64
2023/06/08 08:38:11;;;;;;;8.40;7.60;;;23.80;99.90;;;;;;5137400;27;20122;-64
2023/06/08 08:40:37;;;;;;;9.55;8.57;;;23.70;99.90;;;;;;5136612;27;20084;-62
2023/06/08 08:43:38;;;;;;;9.23;8.32;;;23.70;99.90;;;;;;5136927;27;20059;-64
2023/06/08 08:46:07;;;;;;;11.57;10.38;;;23.70;99.90;;;;;;5119050;27;20117;-63
2023/06/08 08:48:38;;;;;;;10.00;9.00;;;23.70;99.90;;;;;;5136683;27;20046;-63
2023/06/08 08:51:05;;;;;;;10.32;9.18;;;23.70;99.90;;;;;;5136553;27;20391;-62
2023/06/08 08:53:33;;;;;;;10.15;9.02;;;23.60;99.90;;;;;;5136626;27;20115;-63
2023/06/08 08:55:59;;;;;;;13.27;8.80;;;23.30;99.90;;;;;;5136748;27;20031;-63
2023/06/08 08:58:26;;;;;;;10.07;9.10;;;23.10;99.90;;;;;;5135765;27;20038;-64
2023/06/08 09:00:52;;;;;;;14.80;9.68;;;23.10;99.90;;;;;;5136660;27;20027;-63
2023/06/08 09:03:17;;;;;;;9.57;8.57;;;22.90;99.90;;;;;;5117788;27;20547;-63
2023/06/08 09:05:44;;;;;;;11.25;9.85;;;22.90;99.90;;;;;;5136566;27;20075;-62
2023/06/08 09:08:10;;;;;;;12.05;9.35;;;22.90;99.90;;;;;;5136829;27;20031;-63
2023/06/08 09:10:36;;;;;;;15.55;9.15;;;22.90;99.90;;;;;;5136357;27;20063;-65
2023/06/08 09:13:02;;;;;;;10.00;8.68;;;23.00;99.90;;;;;;5136413;27;20486;-63
2023/06/08 09:15:34;;;;;;;11.13;9.63;;;22.90;99.90;;;;;;5136388;27;20031;-63
2023/06/08 09:18:13;;;;;;;10.18;8.65;;;22.70;99.90;;;;;;5136495;27;20038;-63
2023/06/08 09:20:39;;;;;;;11.82;10.05;;;22.50;99.90;;;;;;5118018;27;20131;-63
2023/06/08 09:23:24;;;;;;;11.13;10.02;;;22.30;99.90;;;;;;5136594;27;20067;-63
2023/06/08 09:25:52;;;;;;;13.52;10.55;;;22.20;99.90;;;;;;5136394;27;20039;-63
2023/06/08 09:28:18;;;;;;;12.60;10.57;;;22.10;99.90;;;;;;5136148;27;20062;-62
2023/06/08 09:30:45;;;;;;;11.90;10.38;;;21.90;99.90;;;;;;5136155;27;20046;-62
2023/06/08 09:33:21;;;;;;;11.60;10.40;;;21.70;99.90;;;;;;5136001;27;20399;-64
2023/06/08 09:35:48;;;;;;;14.30;10.52;;;21.60;99.90;;;;;;5136149;27;20043;-62
2023/06/08 09:38:21;;;;;;;13.00;10.63;;;21.50;99.90;;;;;;5117521;27;20039;-65
2023/06/08 09:40:50;;;;;;;14.00;10.60;;;21.40;99.90;;;;;;5136017;27;20081;-63
2023/06/08 09:43:34;;;;;;;12.63;10.07;;;21.30;99.90;;;;;;5135997;27;20053;-65
2023/06/08 09:46:00;;;;;;;14.40;11.80;;;21.30;99.90;;;;;;5135734;27;20031;-65
2023/06/08 09:48:25;;;;;;;12.88;10.82;;;21.20;99.90;;;;;;5136069;27;20035;-65
2023/06/08 09:51:02;;;;;;;14.15;10.80;;;21.20;99.90;;;;;;5135988;27;20039;-65
2023/06/08 09:53:31;;;;;;;12.13;10.73;;;21.10;99.90;;;;;;5135455;27;20035;-65
2023/06/08 09:55:57;;;;;;;;;;;21.00;99.90;;;;;;5136297;27;20027;-65
2023/06/08 09:58:27;;;;;;;14.93;12.50;;;22.20;99.90;;;;;;5135259;27;20253;-65
2023/06/08 10:01:00;;;;;;;14.57;12.27;;;20.80;99.90;;;;;;5135710;27;20066;-65
2023/06/08 10:03:36;;;;;;;13.90;12.43;;;20.80;99.90;;;;;;5135488;27;20058;-65
2023/06/08 10:06:06;;;;;;;14.65;12.27;;;20.70;99.90;;;;;;5135530;27;20035;-65
2023/06/08 10:08:33;;;;;;;14.85;12.50;;;20.80;99.90;;;;;;5135356;27;20036;-65
2023/06/08 10:11:00;;;;;;;15.95;12.23;;;20.80;99.90;;;;;;5116143;27;20067;-65
2023/06/08 10:13:27;;;;;;;14.35;12.77;;;20.90;99.90;;;;;;5116868;27;20035;-64
2023/06/08 10:15:53;;;;;;;17.83;13.18;;;20.90;99.90;;;;;;5135237;27;20403;-65
2023/06/08 10:18:21;;;;;;;15.90;13.10;;;20.90;99.90;;;;;;5135044;27;20114;-65
2023/06/08 10:20:46;;;;;;;15.75;13.32;;;20.90;99.90;;;;;;5135421;27;20034;-65
2023/06/08 10:23:12;;;;;;;14.70;12.68;;;21.00;99.90;;;;;;5134902;27;20028;-65
2023/06/08 10:25:40;;;;;;;16.55;12.07;;;21.00;99.90;;;;;;5134858;27;20118;-65
2023/06/08 10:28:08;;;;;;;13.73;12.30;;;21.00;99.90;;;;;;5135520;27;20096;-65
2023/06/08 10:30:42;;;;;;;16.58;12.95;;;21.10;99.90;;;;;;5134788;27;20046;-74
2023/06/08 10:33:16;;;;;;;16.33;12.65;;;21.10;99.90;;;;;;5135007;27;20074;-74
2023/06/08 10:36:02;;;;;;;16.92;12.40;;;21.10;99.90;;;;;;5134970;27;20035;-74
2023/06/08 10:38:29;;;;;;;14.32;12.90;;;21.00;99.90;;;;;;5116492;27;20035;-75
2023/06/08 10:40:55;;;;;;;15.85;13.85;;;20.90;99.90;;;;;;5116480;27;20070;-74
2023/06/08 10:43:27;;;;;;;17.33;13.23;;;20.80;99.90;;;;;;5116601;27;20065;-74
2023/06/08 10:45:53;;;;;;;14.10;12.52;;;20.60;99.90;;;;;;5116437;27;20035;-74
2023/06/08 10:48:19;;;;;;;13.98;12.48;;;20.40;99.90;;;;;;5116997;27;20488;-75
2023/06/08 10:50:48;;;;;;;18.27;13.90;;;20.20;99.90;;;;;;5134716;27;20034;-74
2023/06/08 10:53:22;;;;;;;19.05;13.88;;;20.10;99.90;;;;;;5134405;27;20495;-75
2023/06/08 10:55:49;;;;;;;24.33;14.32;;;20.10;99.90;;;;;;5134385;27;20035;-75
2023/06/08 10:58:19;;;;;;;16.02;14.38;;;20.00;99.90;;;;;;5134746;27;20067;-75
2023/06/08 11:00:49;;;;;;;16.92;13.65;;;19.90;99.90;;;;;;5134923;28;20468;-75
2023/06/08 11:03:25;;;;;;;16.23;14.25;;;19.90;99.90;;;;;;5134920;28;20498;-75
2023/06/08 11:05:53;;;;;;;16.48;14.07;;;19.90;99.90;;;;;;5116558;28;20043;-75
2023/06/08 11:08:19;;;;;;;15.85;14.15;;;19.80;99.90;;;;;;5134704;28;20024;-75
2023/06/08 11:10:52;;;;;;;19.27;14.25;;;19.70;99.90;;;;;;5134605;28;20107;-75
2023/06/08 11:13:18;;;;;;;17.25;14.45;;;19.60;99.90;;;;;;5134653;28;20097;-75
2023/06/08 11:15:46;;;;;;;16.27;14.48;;;19.60;99.90;;;;;;5116145;28;20071;-76
2023/06/08 11:18:12;;;;;;;19.75;15.13;;;19.50;99.90;;;;;;5116055;28;20080;-75
2023/06/08 11:20:40;;;;;;;21.02;14.50;;;19.50;99.90;;;;;;5135491;27;20353;-75
2023/06/08 11:23:08;;;;;;;16.45;14.70;;;19.40;99.90;;;;;;5138711;27;20455;-75
2023/06/08 11:25:35;;;;;;;16.60;14.63;;;19.40;99.90;;;;;;5138553;27;20038;-75
2023/06/08 11:28:01;;;;;;;15.55;13.20;;;19.40;99.90;;;;;;5138571;27;20034;-75
2023/06/08 11:30:28;;;;;;;20.30;15.60;;;19.40;99.90;;;;;;5138493;27;20027;-75
2023/06/08 11:32:56;;;;;;;16.23;14.50;;;19.50;99.90;;;;;;5138321;27;20388;-75
2023/06/08 11:35:22;;;;;;;20.90;14.70;;;19.50;99.90;;;;;;5119954;27;20060;-66
2023/06/08 11:37:52;;;;;;;19.17;15.55;;;19.50;99.90;;;;;;5138426;27;20098;-66
2023/06/08 11:40:18;;;;;;;18.67;14.27;;;19.60;99.90;;;;;;5138528;27;20027;-66
2023/06/08 11:42:44;;;;;;;16.50;14.55;;;19.50;99.90;;;;;;5138342;27;20361;-75
2023/06/08 11:45:12;;;;;;;20.33;14.07;;;19.50;99.90;;;;;;5119806;27;20042;-72
2023/06/08 11:47:42;;;;;;;18.73;16.27;;;19.50;99.90;;;;;;5138144;27;20031;-64
2023/06/08 11:50:09;;;;;;;17.95;15.00;;;19.60;99.90;;;;;;5137875;27;20120;-65
2023/06/08 11:52:35;;;;;;;16.70;14.57;;;19.60;99.90;;;;;;5119802;27;20031;-74
2023/06/08 11:55:08;;;;;;;18.70;15.00;;;19.70;99.90;;;;;;5119242;27;20083;-75
2023/06/08 11:57:41;;;;;;;18.17;14.75;;;19.80;99.90;;;;;;5138076;27;20038;-75
2023/06/08 12:00:16;;;;;;;16.98;15.18;;;19.90;99.90;;;;;;5138079;27;20035;-75
2023/06/08 12:02:41;;;;;;;15.75;14.20;;;20.00;99.90;;;;;;5119550;27;20031;-75
2023/06/08 12:05:24;;;;;;;16.17;14.57;;;20.20;99.90;;;;;;5119418;27;20046;-76
2023/06/08 12:08:16;;;;;;;16.45;14.05;;;20.30;99.90;;;;;;5138142;27;20031;-75
2023/06/08 12:10:45;;;;;;;14.48;12.98;;;20.30;99.90;;;;;;5132800;27;20104;-75
2023/06/08 12:13:12;;;;;;;;;;;20.50;99.90;;;;;;5119790;27;20035;-75
2023/06/08 12:15:44;;;;;;;16.52;13.40;;;20.80;99.90;;;;;;5137601;27;19908;-75
2023/06/08 12:18:11;;;;;;;14.38;12.88;;;20.90;99.90;;;;;;5137580;27;20074;-73
2023/06/08 12:20:37;;;;;;;14.05;12.65;;;21.30;99.90;;;;;;5135982;27;20079;-73
2023/06/08 12:23:03;;;;;;;14.38;12.98;;;21.60;99.90;;;;;;5137237;27;20027;-73
2023/06/08 12:25:30;;;;;;;13.48;12.00;;;22.10;99.90;;;;;;5119024;27;20074;-74
2023/06/08 12:27:56;;;;;;;12.90;11.68;;;22.40;99.90;;;;;;5119045;27;20050;-74
2023/06/08 12:30:25;;;;;;;14.75;12.07;;;22.80;99.90;;;;;;5118889;27;20031;-74
2023/06/08 12:32:50;;;;;;;;;;;23.50;99.90;;;;;;5118074;27;20031;-74
2023/06/08 12:35:16;;;;;;;11.07;10.05;;;24.60;99.90;;;;;;5119723;27;19915;-74
2023/06/08 12:37:48;;;;;;;11.55;10.50;;;25.20;99.90;;;;;;5111871;28;20038;-74
2023/06/08 12:40:23;;;;;;;12.43;11.13;;;25.50;99.90;;;;;;5098220;28;20077;-74
2023/06/08 12:42:49;;;;;;;10.50;9.50;;;25.80;99.90;;;;;;5098488;28;20081;-74